»·PEaware :: N5491J KSNA-KSAN

N5491J :: KSNA-KSAN

FLIGHT INFORMATION

Flight Status: Arrived
Operator: Privately registered:
United States
More flights under this callsign
Pilot: David L. (16466)
Aircraft: CESSNA 172 SKYHAWK
(C172)
More flights by this aircraft type
Origin: KSNA John Wayne-Orange Co
United States
Destination: KSAN San Diego Intl-Lindbergh
United States
More flights between these airports :: More routes between these airports
Route: +V23 MZB
File this flight plan on PilotEdge
Remarks:
Altitude:
(Current/Filed)
5,000ft
Speed:
(Current/Filed)
120kts
Departed: 05-May-18 04:19 PM
Arrived: 05-May-18 05:11 PM
Distance/Time
Traveled:
66nm/0:52
Distance/Time
To Go:
Arrived

Flight Plot

Page will automatically refresh every two minutes.


Map Options




Map Legend


Flown Route
Filed Route
Departure Airport
Arrival Airport
Navaid (VOR, NDB)
Fix

Horizontal Profiles

Position Reports

Time Latitude Longitude Heading Altitude Ground
Speed
05-May-18 16:00 33.667713 -117.871107 37 59ft 0kts
05-May-18 16:01 33.667713 -117.871107 37 59ft 0kts
05-May-18 16:02 33.667713 -117.871107 37 59ft 0kts
05-May-18 16:03 33.667713 -117.871107 37 59ft 0kts
05-May-18 16:04 33.667713 -117.871107 37 59ft 0kts
05-May-18 16:05 33.667713 -117.871107 37 59ft 0kts
05-May-18 16:06 33.667713 -117.871107 37 59ft 0kts
05-May-18 16:07 33.667713 -117.871107 37 59ft 0kts
05-May-18 16:08 33.667713 -117.871107 37 59ft 0kts
05-May-18 16:08 33.670156 -117.870233 38 59ft 16kts
05-May-18 16:09 33.673436 -117.866620 5 59ft 8kts
05-May-18 16:11 33.676304 -117.865693 26 59ft 16kts
05-May-18 16:12 33.679722 -117.863850 309 59ft 0kts
05-May-18 16:13 33.679722 -117.863851 309 59ft 0kts
05-May-18 16:14 33.679723 -117.863852 309 59ft 0kts
05-May-18 16:15 33.679723 -117.863853 309 59ft 0kts
05-May-18 16:15 33.679724 -117.863853 309 59ft 0kts
05-May-18 16:16 33.679724 -117.863854 309 59ft 0kts
05-May-18 16:17 33.678890 -117.864950 207 59ft 38kts
05-May-18 16:18 33.660823 -117.874723 188 666ft 75kts
05-May-18 16:19 33.639128 -117.878006 186 1407ft 84kts
05-May-18 16:20 33.614035 -117.881524 186 2090ft 97kts
05-May-18 16:21 33.586234 -117.885521 186 2727ft 102kts
05-May-18 16:22 33.558361 -117.889236 186 3382ft 99kts
05-May-18 16:23 33.530957 -117.893244 186 4038ft 98kts
05-May-18 16:24 33.503521 -117.897914 186 4655ft 100kts
05-May-18 16:25 33.481018 -117.888326 111 5064ft 105kts
05-May-18 16:26 33.466220 -117.852705 111 5006ft 125kts
05-May-18 16:27 33.450807 -117.815098 111 4999ft 126kts
05-May-18 16:28 33.435401 -117.777486 111 5000ft 125kts
05-May-18 16:29 33.419948 -117.739846 111 4999ft 125kts
05-May-18 16:30 33.404543 -117.702404 111 5000ft 125kts
05-May-18 16:31 33.389109 -117.664839 111 5000ft 125kts
05-May-18 16:32 33.377388 -117.625989 101 5000ft 124kts
05-May-18 16:33 33.366195 -117.586738 103 4999ft 124kts
05-May-18 16:34 33.359199 -117.546628 94 5000ft 123kts
05-May-18 16:35 33.334194 -117.524434 153 5016ft 132kts
05-May-18 16:36 33.306164 -117.497800 126 5000ft 128kts
05-May-18 16:37 33.281524 -117.466425 130 5000ft 129kts
05-May-18 16:38 33.256122 -117.436209 130 5000ft 129kts
05-May-18 16:39 33.226305 -117.412456 148 5003ft 132kts
05-May-18 16:40 33.191611 -117.396341 156 5000ft 134kts
05-May-18 16:41 33.156506 -117.381208 156 5000ft 134kts
05-May-18 16:42 33.121449 -117.366115 154 5001ft 134kts
05-May-18 16:43 33.086679 -117.349931 155 4918ft 137kts
05-May-18 16:44 33.049565 -117.333672 159 4235ft 141kts
05-May-18 16:45 33.012852 -117.319352 161 3536ft 137kts
05-May-18 16:46 32.977408 -117.305312 161 2991ft 130kts
05-May-18 16:47 32.942451 -117.291136 160 3001ft 132kts
05-May-18 16:48 32.907408 -117.276667 160 3000ft 133kts
05-May-18 16:49 32.872800 -117.262487 160 2971ft 123kts
05-May-18 16:50 32.843212 -117.250374 160 2989ft 106kts
05-May-18 16:51 32.815522 -117.239041 160 2999ft 104kts
05-May-18 16:52 32.787814 -117.229562 189 2953ft 108kts
05-May-18 16:53 32.775292 -117.258966 267 2824ft 109kts
05-May-18 16:54 32.767318 -117.293181 258 2821ft 102kts
05-May-18 16:55 32.775242 -117.323836 305 2856ft 99kts
05-May-18 16:56 32.776032 -117.358974 273 2605ft 112kts
05-May-18 16:58 32.783934 -117.395433 297 2083ft 111kts
05-May-18 16:59 32.791836 -117.429199 274 2085ft 103kts
05-May-18 17:00 32.781068 -117.460876 240 2014ft 106kts
05-May-18 17:01 32.774578 -117.491925 312 2023ft 102kts
05-May-18 17:02 32.795377 -117.480542 65 2060ft 100kts
05-May-18 17:03 32.796190 -117.447854 105 2070ft 101kts
05-May-18 17:04 32.787210 -117.414607 106 1996ft 106kts
05-May-18 17:05 32.779610 -117.381060 104 1998ft 104kts
05-May-18 17:06 32.772108 -117.347920 105 1999ft 104kts
05-May-18 17:07 32.763963 -117.314991 106 2000ft 104kts
05-May-18 17:08 32.755940 -117.282136 105 1562ft 99kts
05-May-18 17:09 32.748522 -117.251392 105 974ft 95kts
05-May-18 17:10 32.741116 -117.220846 105 443ft 96kts
05-May-18 17:11 32.735266 -117.196715 105 18ft 16kts
05-May-18 17:12 32.734003 -117.194902 198 18ft 0kts
05-May-18 17:13 32.733558 -117.193594 104 18ft 15kts
05-May-18 17:14 32.734047 -117.190147 10 18ft 11kts
05-May-18 17:15 32.734225 -117.188782 105 18ft 8kts
05-May-18 17:16 32.732831 -117.182909 105 18ft 25kts
05-May-18 17:17 32.732273 -117.177939 13 18ft 11kts
05-May-18 17:18 32.732646 -117.177832 12 18ft 0kts

Navigation Log

Ident Type
1. KSNA Airport
2. MZB Navaid
3. KSAN Airport